sensor_id;sensor_type;location;lat;lon;timestamp;P1;durP1;ratioP1;P2;durP2;ratioP2
14100;SDS011;7127;49.372;8.166;2023-07-28T00:00:55;2.50;;;0.60;;
14100;SDS011;7127;49.372;8.166;2023-07-28T00:03:22;1.10;;;1.00;;
14100;SDS011;7127;49.372;8.166;2023-07-28T00:05:48;1.10;;;0.87;;
14100;SDS011;7127;49.372;8.166;2023-07-28T00:08:17;0.80;;;0.80;;
14100;SDS011;7127;49.372;8.166;2023-07-28T00:10:43;1.00;;;1.00;;
14100;SDS011;7127;49.372;8.166;2023-07-28T00:13:10;1.10;;;1.00;;
14100;SDS011;7127;49.372;8.166;2023-07-28T00:15:38;1.10;;;1.00;;
14100;SDS011;7127;49.372;8.166;2023-07-28T00:18:04;1.00;;;1.00;;
14100;SDS011;7127;49.372;8.166;2023-07-28T00:20:31;1.17;;;1.07;;
14100;SDS011;7127;49.372;8.166;2023-07-28T00:22:58;1.10;;;1.00;;
14100;SDS011;7127;49.372;8.166;2023-07-28T00:25:26;0.90;;;0.90;;
14100;SDS011;7127;49.372;8.166;2023-07-28T00:27:55;0.90;;;0.90;;
14100;SDS011;7127;49.372;8.166;2023-07-28T00:30:21;1.60;;;1.40;;
14100;SDS011;7127;49.372;8.166;2023-07-28T00:32:48;1.20;;;1.10;;
14100;SDS011;7127;49.372;8.166;2023-07-28T00:35:15;1.17;;;1.07;;
14100;SDS011;7127;49.372;8.166;2023-07-28T00:37:42;1.20;;;1.10;;
14100;SDS011;7127;49.372;8.166;2023-07-28T00:40:09;1.30;;;1.20;;
14100;SDS011;7127;49.372;8.166;2023-07-28T00:42:38;1.40;;;1.20;;
14100;SDS011;7127;49.372;8.166;2023-07-28T00:45:06;1.40;;;1.30;;
14100;SDS011;7127;49.372;8.166;2023-07-28T00:47:33;1.20;;;1.10;;
14100;SDS011;7127;49.372;8.166;2023-07-28T00:50:01;1.53;;;1.37;;
14100;SDS011;7127;49.372;8.166;2023-07-28T00:52:28;1.50;;;1.40;;
14100;SDS011;7127;49.372;8.166;2023-07-28T00:54:55;1.27;;;1.10;;
14100;SDS011;7127;49.372;8.166;2023-07-28T00:57:21;0.87;;;0.87;;
14100;SDS011;7127;49.372;8.166;2023-07-28T00:59:50;2.37;;;1.23;;
14100;SDS011;7127;49.372;8.166;2023-07-28T01:02:17;2.30;;;1.00;;
14100;SDS011;7127;49.372;8.166;2023-07-28T01:04:43;0.97;;;0.97;;
14100;SDS011;7127;49.372;8.166;2023-07-28T01:07:13;1.43;;;0.93;;
14100;SDS011;7127;49.372;8.166;2023-07-28T01:09:46;1.20;;;1.10;;
14100;SDS011;7127;49.372;8.166;2023-07-28T01:12:16;1.53;;;1.20;;
14100;SDS011;7127;49.372;8.166;2023-07-28T01:14:43;1.03;;;1.00;;
14100;SDS011;7127;49.372;8.166;2023-07-28T01:17:12;0.97;;;0.97;;
14100;SDS011;7127;49.372;8.166;2023-07-28T01:19:39;1.50;;;1.20;;
14100;SDS011;7127;49.372;8.166;2023-07-28T01:22:13;1.00;;;1.00;;
14100;SDS011;7127;49.372;8.166;2023-07-28T01:24:59;1.17;;;1.07;;
14100;SDS011;7127;49.372;8.166;2023-07-28T01:27:33;1.17;;;1.10;;
14100;SDS011;7127;49.372;8.166;2023-07-28T01:30:02;1.00;;;0.93;;
14100;SDS011;7127;49.372;8.166;2023-07-28T01:32:29;1.17;;;1.03;;
14100;SDS011;7127;49.372;8.166;2023-07-28T01:34:56;1.00;;;1.00;;
14100;SDS011;7127;49.372;8.166;2023-07-28T01:37:23;1.20;;;1.10;;
14100;SDS011;7127;49.372;8.166;2023-07-28T01:39:50;1.20;;;1.10;;
14100;SDS011;7127;49.372;8.166;2023-07-28T01:42:17;1.10;;;1.00;;
14100;SDS011;7127;49.372;8.166;2023-07-28T01:44:45;1.30;;;1.20;;
14100;SDS011;7127;49.372;8.166;2023-07-28T01:47:12;1.30;;;1.20;;
14100;SDS011;7127;49.372;8.166;2023-07-28T01:49:39;1.20;;;1.10;;
14100;SDS011;7127;49.372;8.166;2023-07-28T01:52:06;1.47;;;1.37;;
14100;SDS011;7127;49.372;8.166;2023-07-28T01:54:33;1.30;;;1.20;;
14100;SDS011;7127;49.372;8.166;2023-07-28T01:56:59;1.10;;;1.10;;
14100;SDS011;7127;49.372;8.166;2023-07-28T01:59:26;2.23;;;1.30;;
14100;SDS011;7127;49.372;8.166;2023-07-28T02:01:55;1.23;;;1.17;;
14100;SDS011;7127;49.372;8.166;2023-07-28T02:04:23;1.30;;;1.20;;
14100;SDS011;7127;49.372;8.166;2023-07-28T02:06:50;1.03;;;1.03;;
14100;SDS011;7127;49.372;8.166;2023-07-28T02:09:16;1.17;;;1.07;;
14100;SDS011;7127;49.372;8.166;2023-07-28T02:11:43;1.30;;;1.20;;
14100;SDS011;7127;49.372;8.166;2023-07-28T02:14:10;1.00;;;1.00;;
14100;SDS011;7127;49.372;8.166;2023-07-28T02:16:37;1.20;;;1.10;;
14100;SDS011;7127;49.372;8.166;2023-07-28T02:19:05;1.40;;;1.30;;
14100;SDS011;7127;49.372;8.166;2023-07-28T02:21:32;1.20;;;1.10;;
14100;SDS011;7127;49.372;8.166;2023-07-28T02:23:59;1.20;;;1.10;;
14100;SDS011;7127;49.372;8.166;2023-07-28T02:26:26;1.13;;;1.10;;
14100;SDS011;7127;49.372;8.166;2023-07-28T02:28:53;1.30;;;1.20;;
14100;SDS011;7127;49.372;8.166;2023-07-28T02:31:20;1.40;;;1.30;;
14100;SDS011;7127;49.372;8.166;2023-07-28T02:33:47;1.00;;;1.00;;
14100;SDS011;7127;49.372;8.166;2023-07-28T02:36:15;1.20;;;1.10;;
14100;SDS011;7127;49.372;8.166;2023-07-28T02:38:42;0.93;;;0.93;;
14100;SDS011;7127;49.372;8.166;2023-07-28T02:41:09;0.80;;;0.80;;
14100;SDS011;7127;49.372;8.166;2023-07-28T02:43:36;0.90;;;0.90;;
14100;SDS011;7127;49.372;8.166;2023-07-28T02:46:02;1.10;;;0.90;;
14100;SDS011;7127;49.372;8.166;2023-07-28T02:48:31;1.87;;;0.90;;
14100;SDS011;7127;49.372;8.166;2023-07-28T02:50:57;0.70;;;0.70;;
14100;SDS011;7127;49.372;8.166;2023-07-28T02:53:26;0.87;;;0.87;;
14100;SDS011;7127;49.372;8.166;2023-07-28T02:55:52;0.77;;;0.77;;
14100;SDS011;7127;49.372;8.166;2023-07-28T02:58:19;0.70;;;0.70;;
14100;SDS011;7127;49.372;8.166;2023-07-28T03:00:46;0.73;;;0.73;;
14100;SDS011;7127;49.372;8.166;2023-07-28T03:03:14;0.67;;;0.67;;
14100;SDS011;7127;49.372;8.166;2023-07-28T03:05:40;0.80;;;0.80;;
14100;SDS011;7127;49.372;8.166;2023-07-28T03:08:07;0.57;;;0.57;;
14100;SDS011;7127;49.372;8.166;2023-07-28T03:10:35;0.57;;;0.57;;
14100;SDS011;7127;49.372;8.166;2023-07-28T03:13:02;0.70;;;0.70;;
14100;SDS011;7127;49.372;8.166;2023-07-28T03:15:29;0.67;;;0.67;;
14100;SDS011;7127;49.372;8.166;2023-07-28T03:17:56;1.90;;;0.80;;
14100;SDS011;7127;49.372;8.166;2023-07-28T03:20:23;0.60;;;0.60;;
14100;SDS011;7127;49.372;8.166;2023-07-28T03:22:50;0.77;;;0.77;;
14100;SDS011;7127;49.372;8.166;2023-07-28T03:25:17;0.57;;;0.57;;
14100;SDS011;7127;49.372;8.166;2023-07-28T03:27:45;0.60;;;0.60;;
14100;SDS011;7127;49.372;8.166;2023-07-28T03:30:12;0.50;;;0.50;;
14100;SDS011;7127;49.372;8.166;2023-07-28T03:32:39;0.70;;;0.70;;
14100;SDS011;7127;49.372;8.166;2023-07-28T03:35:07;0.50;;;0.50;;
14100;SDS011;7127;49.372;8.166;2023-07-28T03:37:34;0.40;;;0.40;;
14100;SDS011;7127;49.372;8.166;2023-07-28T03:40:01;0.50;;;0.50;;
14100;SDS011;7127;49.372;8.166;2023-07-28T03:42:28;0.67;;;0.67;;
14100;SDS011;7127;49.372;8.166;2023-07-28T03:44:56;0.50;;;0.50;;
14100;SDS011;7127;49.372;8.166;2023-07-28T03:47:24;0.80;;;0.70;;
14100;SDS011;7127;49.372;8.166;2023-07-28T03:49:50;0.60;;;0.60;;
14100;SDS011;7127;49.372;8.166;2023-07-28T03:52:18;0.50;;;0.50;;
14100;SDS011;7127;49.372;8.166;2023-07-28T03:54:44;0.60;;;0.60;;
14100;SDS011;7127;49.372;8.166;2023-07-28T03:57:11;0.50;;;0.50;;
14100;SDS011;7127;49.372;8.166;2023-07-28T03:59:38;0.53;;;0.53;;
14100;SDS011;7127;49.372;8.166;2023-07-28T04:02:06;0.77;;;0.77;;
14100;SDS011;7127;49.372;8.166;2023-07-28T04:04:34;0.67;;;0.67;;
14100;SDS011;7127;49.372;8.166;2023-07-28T04:07:01;0.70;;;0.70;;
14100;SDS011;7127;49.372;8.166;2023-07-28T04:09:28;1.40;;;0.60;;
14100;SDS011;7127;49.372;8.166;2023-07-28T04:11:55;1.10;;;0.90;;
14100;SDS011;7127;49.372;8.166;2023-07-28T04:14:22;1.57;;;0.60;;
14100;SDS011;7127;49.372;8.166;2023-07-28T04:16:49;0.50;;;0.50;;
14100;SDS011;7127;49.372;8.166;2023-07-28T04:19:17;1.73;;;0.70;;
14100;SDS011;7127;49.372;8.166;2023-07-28T04:21:44;0.60;;;0.60;;
14100;SDS011;7127;49.372;8.166;2023-07-28T04:24:11;0.60;;;0.60;;
14100;SDS011;7127;49.372;8.166;2023-07-28T04:26:38;0.80;;;0.70;;
14100;SDS011;7127;49.372;8.166;2023-07-28T04:29:07;0.50;;;0.50;;
14100;SDS011;7127;49.372;8.166;2023-07-28T04:31:34;0.60;;;0.60;;
14100;SDS011;7127;49.372;8.166;2023-07-28T04:34:01;0.50;;;0.50;;
14100;SDS011;7127;49.372;8.166;2023-07-28T04:36:30;0.80;;;0.50;;
14100;SDS011;7127;49.372;8.166;2023-07-28T04:38:57;0.60;;;0.60;;
14100;SDS011;7127;49.372;8.166;2023-07-28T04:41:24;0.40;;;0.40;;
14100;SDS011;7127;49.372;8.166;2023-07-28T04:43:51;0.30;;;0.30;;
14100;SDS011;7127;49.372;8.166;2023-07-28T04:46:18;0.53;;;0.53;;
14100;SDS011;7127;49.372;8.166;2023-07-28T04:48:45;0.57;;;0.57;;
14100;SDS011;7127;49.372;8.166;2023-07-28T04:51:12;0.57;;;0.57;;
14100;SDS011;7127;49.372;8.166;2023-07-28T04:53:40;0.40;;;0.40;;
14100;SDS011;7127;49.372;8.166;2023-07-28T04:56:07;0.60;;;0.60;;
14100;SDS011;7127;49.372;8.166;2023-07-28T04:58:34;0.57;;;0.57;;
14100;SDS011;7127;49.372;8.166;2023-07-28T05:01:01;0.57;;;0.57;;
14100;SDS011;7127;49.372;8.166;2023-07-28T05:03:28;0.50;;;0.40;;
14100;SDS011;7127;49.372;8.166;2023-07-28T05:05:55;0.50;;;0.50;;
14100;SDS011;7127;49.372;8.166;2023-07-28T05:08:22;0.83;;;0.60;;
14100;SDS011;7127;49.372;8.166;2023-07-28T05:10:50;0.47;;;0.47;;
14100;SDS011;7127;49.372;8.166;2023-07-28T05:13:17;0.70;;;0.70;;
14100;SDS011;7127;49.372;8.166;2023-07-28T05:15:44;0.40;;;0.40;;
14100;SDS011;7127;49.372;8.166;2023-07-28T05:18:10;0.30;;;0.30;;
14100;SDS011;7127;49.372;8.166;2023-07-28T05:20:37;0.40;;;0.40;;
14100;SDS011;7127;49.372;8.166;2023-07-28T05:23:04;0.50;;;0.50;;
14100;SDS011;7127;49.372;8.166;2023-07-28T05:25:31;0.60;;;0.60;;
14100;SDS011;7127;49.372;8.166;2023-07-28T05:27:59;0.60;;;0.60;;
14100;SDS011;7127;49.372;8.166;2023-07-28T05:30:26;0.40;;;0.40;;
14100;SDS011;7127;49.372;8.166;2023-07-28T05:32:53;0.40;;;0.40;;
14100;SDS011;7127;49.372;8.166;2023-07-28T05:35:20;0.60;;;0.57;;
14100;SDS011;7127;49.372;8.166;2023-07-28T05:37:47;0.33;;;0.33;;
14100;SDS011;7127;49.372;8.166;2023-07-28T05:40:14;0.50;;;0.50;;
14100;SDS011;7127;49.372;8.166;2023-07-28T05:42:41;0.60;;;0.50;;
14100;SDS011;7127;49.372;8.166;2023-07-28T05:45:10;0.47;;;0.43;;
14100;SDS011;7127;49.372;8.166;2023-07-28T05:47:37;0.53;;;0.50;;
14100;SDS011;7127;49.372;8.166;2023-07-28T05:50:05;0.50;;;0.40;;
14100;SDS011;7127;49.372;8.166;2023-07-28T05:52:33;0.47;;;0.47;;
14100;SDS011;7127;49.372;8.166;2023-07-28T05:55:00;0.70;;;0.57;;
14100;SDS011;7127;49.372;8.166;2023-07-28T05:57:27;0.97;;;0.70;;
14100;SDS011;7127;49.372;8.166;2023-07-28T05:59:54;0.53;;;0.53;;
14100;SDS011;7127;49.372;8.166;2023-07-28T06:02:22;0.60;;;0.50;;
14100;SDS011;7127;49.372;8.166;2023-07-28T06:04:49;0.40;;;0.40;;
14100;SDS011;7127;49.372;8.166;2023-07-28T06:07:17;1.10;;;0.60;;
14100;SDS011;7127;49.372;8.166;2023-07-28T06:09:44;0.57;;;0.50;;
14100;SDS011;7127;49.372;8.166;2023-07-28T06:12:11;0.50;;;0.50;;
14100;SDS011;7127;49.372;8.166;2023-07-28T06:14:38;0.50;;;0.50;;
14100;SDS011;7127;49.372;8.166;2023-07-28T06:17:05;0.53;;;0.53;;
14100;SDS011;7127;49.372;8.166;2023-07-28T06:19:34;0.60;;;0.60;;
14100;SDS011;7127;49.372;8.166;2023-07-28T06:22:01;0.50;;;0.50;;
14100;SDS011;7127;49.372;8.166;2023-07-28T06:24:29;0.50;;;0.50;;
14100;SDS011;7127;49.372;8.166;2023-07-28T06:26:56;0.60;;;0.50;;
14100;SDS011;7127;49.372;8.166;2023-07-28T06:29:23;0.50;;;0.50;;
14100;SDS011;7127;49.372;8.166;2023-07-28T06:39:37;0.40;;;0.40;;
14100;SDS011;7127;49.372;8.166;2023-07-28T06:42:04;0.63;;;0.60;;
14100;SDS011;7127;49.372;8.166;2023-07-28T06:44:32;0.40;;;0.40;;
14100;SDS011;7127;49.372;8.166;2023-07-28T06:46:59;0.50;;;0.50;;
14100;SDS011;7127;49.372;8.166;2023-07-28T06:49:25;0.60;;;0.60;;
14100;SDS011;7127;49.372;8.166;2023-07-28T06:51:52;0.50;;;0.50;;
14100;SDS011;7127;49.372;8.166;2023-07-28T06:54:19;0.60;;;0.60;;
14100;SDS011;7127;49.372;8.166;2023-07-28T06:56:48;0.50;;;0.50;;
14100;SDS011;7127;49.372;8.166;2023-07-28T06:59:15;0.40;;;0.40;;
14100;SDS011;7127;49.372;8.166;2023-07-28T07:17:15;1.10;;;0.70;;
14100;SDS011;7127;49.372;8.166;2023-07-28T07:19:42;0.50;;;0.50;;
14100;SDS011;7127;49.372;8.166;2023-07-28T07:22:10;0.60;;;0.47;;
14100;SDS011;7127;49.372;8.166;2023-07-28T07:24:36;0.53;;;0.50;;
14100;SDS011;7127;49.372;8.166;2023-07-28T07:27:04;0.73;;;0.53;;
14100;SDS011;7127;49.372;8.166;2023-07-28T07:29:31;0.47;;;0.47;;
14100;SDS011;7127;49.372;8.166;2023-07-28T07:31:58;0.40;;;0.40;;
14100;SDS011;7127;49.372;8.166;2023-07-28T07:34:26;1.13;;;0.70;;
14100;SDS011;7127;49.372;8.166;2023-07-28T07:36:53;17.23;;;3.10;;
14100;SDS011;7127;49.372;8.166;2023-07-28T07:39:22;7.27;;;2.10;;
14100;SDS011;7127;49.372;8.166;2023-07-28T07:41:48;1.07;;;0.97;;
14100;SDS011;7127;49.372;8.166;2023-07-28T07:44:15;0.73;;;0.50;;
14100;SDS011;7127;49.372;8.166;2023-07-28T07:46:42;0.37;;;0.37;;
14100;SDS011;7127;49.372;8.166;2023-07-28T07:49:09;0.50;;;0.50;;
14100;SDS011;7127;49.372;8.166;2023-07-28T07:51:37;2.20;;;0.60;;
14100;SDS011;7127;49.372;8.166;2023-07-28T07:54:04;0.70;;;0.50;;
14100;SDS011;7127;49.372;8.166;2023-07-28T07:56:31;0.50;;;0.50;;
14100;SDS011;7127;49.372;8.166;2023-07-28T07:58:58;0.40;;;0.40;;
14100;SDS011;7127;49.372;8.166;2023-07-28T08:01:33;1.43;;;0.70;;
14100;SDS011;7127;49.372;8.166;2023-07-28T08:04:00;2.57;;;0.80;;
14100;SDS011;7127;49.372;8.166;2023-07-28T08:06:27;4.10;;;0.80;;
14100;SDS011;7127;49.372;8.166;2023-07-28T08:08:55;0.87;;;0.60;;
14100;SDS011;7127;49.372;8.166;2023-07-28T08:11:24;0.83;;;0.50;;
14100;SDS011;7127;49.372;8.166;2023-07-28T08:13:51;0.40;;;0.40;;
14100;SDS011;7127;49.372;8.166;2023-07-28T08:16:20;0.30;;;0.30;;
14100;SDS011;7127;49.372;8.166;2023-07-28T08:18:47;0.57;;;0.57;;
14100;SDS011;7127;49.372;8.166;2023-07-28T08:21:14;0.80;;;0.60;;
14100;SDS011;7127;49.372;8.166;2023-07-28T08:23:43;0.40;;;0.40;;
14100;SDS011;7127;49.372;8.166;2023-07-28T08:26:11;0.47;;;0.40;;
14100;SDS011;7127;49.372;8.166;2023-07-28T08:28:38;0.50;;;0.50;;
14100;SDS011;7127;49.372;8.166;2023-07-28T08:31:05;0.40;;;0.40;;
14100;SDS011;7127;49.372;8.166;2023-07-28T08:33:32;0.67;;;0.60;;
14100;SDS011;7127;49.372;8.166;2023-07-28T08:35:59;0.40;;;0.40;;
14100;SDS011;7127;49.372;8.166;2023-07-28T08:38:26;0.40;;;0.40;;
14100;SDS011;7127;49.372;8.166;2023-07-28T08:40:52;0.60;;;0.50;;
14100;SDS011;7127;49.372;8.166;2023-07-28T08:43:20;0.47;;;0.47;;
14100;SDS011;7127;49.372;8.166;2023-07-28T08:45:47;0.73;;;0.73;;
14100;SDS011;7127;49.372;8.166;2023-07-28T08:48:14;0.53;;;0.53;;
14100;SDS011;7127;49.372;8.166;2023-07-28T08:50:41;0.90;;;0.80;;
14100;SDS011;7127;49.372;8.166;2023-07-28T08:53:08;0.93;;;0.83;;
14100;SDS011;7127;49.372;8.166;2023-07-28T08:55:35;6.07;;;3.03;;
14100;SDS011;7127;49.372;8.166;2023-07-28T08:58:13;7.00;;;2.67;;
14100;SDS011;7127;49.372;8.166;2023-07-28T09:00:42;2.38;;;1.77;;
14100;SDS011;7127;49.372;8.166;2023-07-28T09:03:09;2.90;;;2.10;;
14100;SDS011;7127;49.372;8.166;2023-07-28T09:05:37;1.87;;;1.67;;
14100;SDS011;7127;49.372;8.166;2023-07-28T09:08:05;1.50;;;1.40;;
14100;SDS011;7127;49.372;8.166;2023-07-28T09:10:39;1.60;;;1.50;;
14100;SDS011;7127;49.372;8.166;2023-07-28T09:13:08;1.40;;;1.30;;
14100;SDS011;7127;49.372;8.166;2023-07-28T09:15:36;1.52;;;1.30;;
14100;SDS011;7127;49.372;8.166;2023-07-28T09:18:04;1.20;;;1.10;;
14100;SDS011;7127;49.372;8.166;2023-07-28T09:20:34;1.00;;;1.00;;
14100;SDS011;7127;49.372;8.166;2023-07-28T09:23:02;1.17;;;1.00;;
14100;SDS011;7127;49.372;8.166;2023-07-28T09:25:30;1.08;;;0.85;;
14100;SDS011;7127;49.372;8.166;2023-07-28T09:27:58;0.90;;;0.90;;
14100;SDS011;7127;49.372;8.166;2023-07-28T09:30:25;0.80;;;0.80;;
14100;SDS011;7127;49.372;8.166;2023-07-28T09:32:53;1.15;;;1.00;;
14100;SDS011;7127;49.372;8.166;2023-07-28T09:35:22;2.25;;;0.95;;
14100;SDS011;7127;49.372;8.166;2023-07-28T09:37:49;1.00;;;0.90;;
14100;SDS011;7127;49.372;8.166;2023-07-28T09:40:18;0.70;;;0.70;;
14100;SDS011;7127;49.372;8.166;2023-07-28T09:42:47;1.00;;;0.90;;
14100;SDS011;7127;49.372;8.166;2023-07-28T09:45:15;0.80;;;0.80;;
14100;SDS011;7127;49.372;8.166;2023-07-28T09:47:44;0.90;;;0.90;;
14100;SDS011;7127;49.372;8.166;2023-07-28T09:50:13;1.05;;;0.95;;
14100;SDS011;7127;49.372;8.166;2023-07-28T09:52:43;0.70;;;0.70;;
14100;SDS011;7127;49.372;8.166;2023-07-28T09:55:12;0.80;;;0.80;;
14100;SDS011;7127;49.372;8.166;2023-07-28T09:57:43;1.25;;;1.15;;
14100;SDS011;7127;49.372;8.166;2023-07-28T10:00:13;0.90;;;0.90;;
14100;SDS011;7127;49.372;8.166;2023-07-28T10:02:43;1.02;;;0.93;;
14100;SDS011;7127;49.372;8.166;2023-07-28T10:05:11;1.20;;;1.10;;
14100;SDS011;7127;49.372;8.166;2023-07-28T10:07:40;1.10;;;1.00;;
14100;SDS011;7127;49.372;8.166;2023-07-28T10:10:10;0.93;;;0.93;;
14100;SDS011;7127;49.372;8.166;2023-07-28T10:12:39;0.90;;;0.90;;
14100;SDS011;7127;49.372;8.166;2023-07-28T10:15:07;0.90;;;0.90;;
14100;SDS011;7127;49.372;8.166;2023-07-28T10:17:37;1.20;;;0.90;;
14100;SDS011;7127;49.372;8.166;2023-07-28T10:20:05;0.90;;;0.90;;
14100;SDS011;7127;49.372;8.166;2023-07-28T10:22:52;0.90;;;0.90;;
14100;SDS011;7127;49.372;8.166;2023-07-28T10:25:23;1.00;;;0.90;;
14100;SDS011;7127;49.372;8.166;2023-07-28T10:27:51;1.08;;;1.08;;
14100;SDS011;7127;49.372;8.166;2023-07-28T10:30:19;1.17;;;0.93;;
14100;SDS011;7127;49.372;8.166;2023-07-28T10:32:47;1.08;;;0.98;;
14100;SDS011;7127;49.372;8.166;2023-07-28T10:35:22;1.00;;;1.00;;
14100;SDS011;7127;49.372;8.166;2023-07-28T10:37:52;0.93;;;0.82;;
14100;SDS011;7127;49.372;8.166;2023-07-28T10:40:23;1.52;;;1.10;;
14100;SDS011;7127;49.372;8.166;2023-07-28T10:42:52;1.05;;;1.00;;
14100;SDS011;7127;49.372;8.166;2023-07-28T10:45:20;0.90;;;0.90;;
14100;SDS011;7127;49.372;8.166;2023-07-28T10:47:48;1.00;;;1.00;;
14100;SDS011;7127;49.372;8.166;2023-07-28T10:50:16;1.00;;;1.00;;
14100;SDS011;7127;49.372;8.166;2023-07-28T10:52:45;1.10;;;1.00;;
14100;SDS011;7127;49.372;8.166;2023-07-28T10:55:13;0.88;;;0.88;;
14100;SDS011;7127;49.372;8.166;2023-07-28T10:57:42;0.80;;;0.80;;
14100;SDS011;7127;49.372;8.166;2023-07-28T11:00:10;1.10;;;1.00;;
14100;SDS011;7127;49.372;8.166;2023-07-28T11:02:38;0.82;;;0.82;;
14100;SDS011;7127;49.372;8.166;2023-07-28T11:05:09;0.70;;;0.70;;
14100;SDS011;7127;49.372;8.166;2023-07-28T11:07:38;0.80;;;0.80;;
14100;SDS011;7127;49.372;8.166;2023-07-28T11:10:07;0.90;;;0.90;;
14100;SDS011;7127;49.372;8.166;2023-07-28T11:12:34;0.70;;;0.70;;
14100;SDS011;7127;49.372;8.166;2023-07-28T11:15:02;0.60;;;0.60;;
14100;SDS011;7127;49.372;8.166;2023-07-28T11:17:30;0.70;;;0.70;;
14100;SDS011;7127;49.372;8.166;2023-07-28T11:19:57;0.90;;;0.90;;
14100;SDS011;7127;49.372;8.166;2023-07-28T11:22:24;0.60;;;0.60;;
14100;SDS011;7127;49.372;8.166;2023-07-28T11:24:51;0.70;;;0.70;;
14100;SDS011;7127;49.372;8.166;2023-07-28T11:27:18;0.70;;;0.70;;
14100;SDS011;7127;49.372;8.166;2023-07-28T11:29:45;0.70;;;0.70;;
14100;SDS011;7127;49.372;8.166;2023-07-28T11:32:16;0.77;;;0.77;;
14100;SDS011;7127;49.372;8.166;2023-07-28T11:34:44;0.60;;;0.60;;
14100;SDS011;7127;49.372;8.166;2023-07-28T11:37:11;0.50;;;0.50;;
14100;SDS011;7127;49.372;8.166;2023-07-28T11:39:38;0.85;;;0.60;;
14100;SDS011;7127;49.372;8.166;2023-07-28T11:42:06;0.68;;;0.68;;
14100;SDS011;7127;49.372;8.166;2023-07-28T11:44:33;0.60;;;0.60;;
14100;SDS011;7127;49.372;8.166;2023-07-28T11:47:03;0.68;;;0.68;;
14100;SDS011;7127;49.372;8.166;2023-07-28T11:49:32;0.60;;;0.60;;
14100;SDS011;7127;49.372;8.166;2023-07-28T11:51:59;0.63;;;0.50;;
14100;SDS011;7127;49.372;8.166;2023-07-28T11:54:26;0.40;;;0.40;;
14100;SDS011;7127;49.372;8.166;2023-07-28T11:56:55;0.45;;;0.45;;
14100;SDS011;7127;49.372;8.166;2023-07-28T11:59:23;0.70;;;0.70;;
14100;SDS011;7127;49.372;8.166;2023-07-28T12:01:54;1.67;;;0.68;;
14100;SDS011;7127;49.372;8.166;2023-07-28T12:04:22;0.50;;;0.50;;
14100;SDS011;7127;49.372;8.166;2023-07-28T12:07:09;0.57;;;0.57;;
14100;SDS011;7127;49.372;8.166;2023-07-28T12:09:47;0.93;;;0.70;;
14100;SDS011;7127;49.372;8.166;2023-07-28T12:12:18;0.55;;;0.55;;
14100;SDS011;7127;49.372;8.166;2023-07-28T12:14:46;0.60;;;0.60;;
14100;SDS011;7127;49.372;8.166;2023-07-28T12:17:13;0.57;;;0.57;;
14100;SDS011;7127;49.372;8.166;2023-07-28T12:19:41;0.50;;;0.50;;
14100;SDS011;7127;49.372;8.166;2023-07-28T12:22:10;0.45;;;0.45;;
14100;SDS011;7127;49.372;8.166;2023-07-28T12:24:37;0.68;;;0.60;;
14100;SDS011;7127;49.372;8.166;2023-07-28T12:27:04;0.60;;;0.60;;
14100;SDS011;7127;49.372;8.166;2023-07-28T12:29:36;0.77;;;0.50;;
14100;SDS011;7127;49.372;8.166;2023-07-28T12:32:03;0.60;;;0.60;;
14100;SDS011;7127;49.372;8.166;2023-07-28T12:34:30;0.60;;;0.60;;
14100;SDS011;7127;49.372;8.166;2023-07-28T12:36:58;0.63;;;0.40;;
14100;SDS011;7127;49.372;8.166;2023-07-28T12:39:27;0.40;;;0.40;;
14100;SDS011;7127;49.372;8.166;2023-07-28T12:41:54;0.57;;;0.50;;
14100;SDS011;7127;49.372;8.166;2023-07-28T12:44:21;0.77;;;0.50;;
14100;SDS011;7127;49.372;8.166;2023-07-28T12:46:47;0.57;;;0.47;;
14100;SDS011;7127;49.372;8.166;2023-07-28T12:49:14;0.43;;;0.43;;
14100;SDS011;7127;49.372;8.166;2023-07-28T12:51:44;0.43;;;0.43;;
14100;SDS011;7127;49.372;8.166;2023-07-28T12:54:11;0.35;;;0.30;;
14100;SDS011;7127;49.372;8.166;2023-07-28T12:56:40;0.40;;;0.40;;
14100;SDS011;7127;49.372;8.166;2023-07-28T12:59:07;0.50;;;0.50;;
14100;SDS011;7127;49.372;8.166;2023-07-28T13:01:35;0.52;;;0.50;;
14100;SDS011;7127;49.372;8.166;2023-07-28T13:04:03;0.93;;;0.40;;
14100;SDS011;7127;49.372;8.166;2023-07-28T13:06:30;1.00;;;0.40;;
14100;SDS011;7127;49.372;8.166;2023-07-28T13:08:56;0.85;;;0.50;;
14100;SDS011;7127;49.372;8.166;2023-07-28T13:11:23;0.40;;;0.40;;
14100;SDS011;7127;49.372;8.166;2023-07-28T13:13:52;0.50;;;0.50;;
14100;SDS011;7127;49.372;8.166;2023-07-28T13:16:19;0.37;;;0.37;;
14100;SDS011;7127;49.372;8.166;2023-07-28T13:18:46;0.70;;;0.60;;
14100;SDS011;7127;49.372;8.166;2023-07-28T13:21:13;0.63;;;0.60;;
14100;SDS011;7127;49.372;8.166;2023-07-28T13:23:40;0.90;;;0.67;;
14100;SDS011;7127;49.372;8.166;2023-07-28T13:26:07;1.27;;;0.77;;
14100;SDS011;7127;49.372;8.166;2023-07-28T13:28:34;1.17;;;0.90;;
14100;SDS011;7127;49.372;8.166;2023-07-28T13:31:03;0.73;;;0.73;;
14100;SDS011;7127;49.372;8.166;2023-07-28T13:33:30;0.70;;;0.70;;
14100;SDS011;7127;49.372;8.166;2023-07-28T13:35:57;1.10;;;0.60;;
14100;SDS011;7127;49.372;8.166;2023-07-28T13:38:24;0.73;;;0.70;;
14100;SDS011;7127;49.372;8.166;2023-07-28T13:40:51;0.68;;;0.60;;
14100;SDS011;7127;49.372;8.166;2023-07-28T13:43:18;0.50;;;0.50;;
14100;SDS011;7127;49.372;8.166;2023-07-28T13:45:45;0.50;;;0.50;;
14100;SDS011;7127;49.372;8.166;2023-07-28T13:48:14;0.53;;;0.53;;
14100;SDS011;7127;49.372;8.166;2023-07-28T13:50:41;0.50;;;0.43;;
14100;SDS011;7127;49.372;8.166;2023-07-28T13:53:08;0.40;;;0.40;;
14100;SDS011;7127;49.372;8.166;2023-07-28T13:55:36;1.40;;;0.77;;
14100;SDS011;7127;49.372;8.166;2023-07-28T13:58:03;0.60;;;0.53;;
14100;SDS011;7127;49.372;8.166;2023-07-28T14:00:31;0.80;;;0.70;;
14100;SDS011;7127;49.372;8.166;2023-07-28T14:02:59;0.50;;;0.50;;
14100;SDS011;7127;49.372;8.166;2023-07-28T14:05:27;0.60;;;0.60;;
14100;SDS011;7127;49.372;8.166;2023-07-28T14:07:54;0.60;;;0.60;;
14100;SDS011;7127;49.372;8.166;2023-07-28T14:10:21;0.60;;;0.60;;
14100;SDS011;7127;49.372;8.166;2023-07-28T14:12:49;0.60;;;0.60;;
14100;SDS011;7127;49.372;8.166;2023-07-28T14:15:16;0.50;;;0.50;;
14100;SDS011;7127;49.372;8.166;2023-07-28T14:17:43;0.70;;;0.70;;
14100;SDS011;7127;49.372;8.166;2023-07-28T14:20:10;1.60;;;0.70;;
14100;SDS011;7127;49.372;8.166;2023-07-28T14:22:40;0.47;;;0.47;;
14100;SDS011;7127;49.372;8.166;2023-07-28T14:25:08;0.50;;;0.50;;
14100;SDS011;7127;49.372;8.166;2023-07-28T14:27:35;0.60;;;0.60;;
14100;SDS011;7127;49.372;8.166;2023-07-28T14:30:03;1.00;;;0.90;;
14100;SDS011;7127;49.372;8.166;2023-07-28T14:32:31;0.73;;;0.70;;
14100;SDS011;7127;49.372;8.166;2023-07-28T14:34:58;0.93;;;0.40;;
14100;SDS011;7127;49.372;8.166;2023-07-28T14:37:25;0.60;;;0.40;;
14100;SDS011;7127;49.372;8.166;2023-07-28T14:39:54;0.60;;;0.57;;
14100;SDS011;7127;49.372;8.166;2023-07-28T14:42:21;0.40;;;0.40;;
14100;SDS011;7127;49.372;8.166;2023-07-28T14:44:49;0.50;;;0.40;;
14100;SDS011;7127;49.372;8.166;2023-07-28T14:47:19;0.60;;;0.50;;
14100;SDS011;7127;49.372;8.166;2023-07-28T14:49:58;0.50;;;0.40;;
14100;SDS011;7127;49.372;8.166;2023-07-28T14:52:28;0.30;;;0.30;;
14100;SDS011;7127;49.372;8.166;2023-07-28T14:54:58;0.57;;;0.40;;
14100;SDS011;7127;49.372;8.166;2023-07-28T14:57:25;0.40;;;0.40;;
14100;SDS011;7127;49.372;8.166;2023-07-28T14:59:52;0.60;;;0.30;;
14100;SDS011;7127;49.372;8.166;2023-07-28T15:02:19;0.40;;;0.40;;
14100;SDS011;7127;49.372;8.166;2023-07-28T15:04:46;0.73;;;0.40;;
14100;SDS011;7127;49.372;8.166;2023-07-28T15:07:13;0.67;;;0.50;;
14100;SDS011;7127;49.372;8.166;2023-07-28T15:09:40;0.60;;;0.60;;
14100;SDS011;7127;49.372;8.166;2023-07-28T15:12:09;0.57;;;0.50;;
14100;SDS011;7127;49.372;8.166;2023-07-28T15:14:35;0.63;;;0.50;;
14100;SDS011;7127;49.372;8.166;2023-07-28T15:17:02;0.60;;;0.57;;
14100;SDS011;7127;49.372;8.166;2023-07-28T15:19:29;0.63;;;0.50;;
14100;SDS011;7127;49.372;8.166;2023-07-28T15:21:56;0.43;;;0.40;;
14100;SDS011;7127;49.372;8.166;2023-07-28T15:24:23;0.63;;;0.50;;
14100;SDS011;7127;49.372;8.166;2023-07-28T15:26:50;0.40;;;0.40;;